createdAt,value
2022-11-05T00:00:38.327Z,73.16
2022-11-05T00:03:28.867Z,73.26
2022-11-05T00:06:15.527Z,73.41
2022-11-05T00:09:02.545Z,73.51
2022-11-05T00:11:53.661Z,73.55
2022-11-05T00:14:40.678Z,73.14
2022-11-05T00:17:08.641Z,73.20
2022-11-05T00:19:36.821Z,73.39
2022-11-05T00:22:23.423Z,73.57
2022-11-05T00:25:09.927Z,73.89
2022-11-05T00:27:37.901Z,73.39
2022-11-05T00:30:07.379Z,73.32
2022-11-05T00:32:37.891Z,72.74
2022-11-05T00:35:09.280Z,72.30
2022-11-05T00:37:37.629Z,73.04
2022-11-05T00:40:07.254Z,74.01
2022-11-05T00:42:54.085Z,75.04
2022-11-05T00:45:22.051Z,75.72
2022-11-05T00:48:08.584Z,76.12
2022-11-05T00:50:36.930Z,76.36
2022-11-05T00:53:05.935Z,76.26
2022-11-05T00:55:43.438Z,76.35
2022-11-05T00:58:19.784Z,76.42
2022-11-05T01:00:59.015Z,76.47
2022-11-05T01:03:30.177Z,76.72
2022-11-05T01:06:07.346Z,76.80
2022-11-05T01:08:35.730Z,76.54
2022-11-05T01:11:34.307Z,76.57
2022-11-05T01:14:04.174Z,76.91
2022-11-05T01:16:32.515Z,76.75
2022-11-05T01:19:01.599Z,76.95
2022-11-05T01:21:29.808Z,77.24
2022-11-05T01:23:57.853Z,77.32
2022-11-05T01:26:27.256Z,77.64
2022-11-05T01:28:57.862Z,77.72
2022-11-05T01:31:26.879Z,77.71
2022-11-05T01:33:54.861Z,77.28
2022-11-05T01:36:22.940Z,76.90
2022-11-05T01:38:50.988Z,76.30
2022-11-05T01:41:18.957Z,75.72
2022-11-05T01:43:50.195Z,75.68
2022-11-05T01:46:23.907Z,75.48
2022-11-05T01:49:00.053Z,75.39
2022-11-05T01:51:30.737Z,75.22
2022-11-05T01:54:06.152Z,75.00
2022-11-05T01:56:38.722Z,74.77
2022-11-05T01:59:12.077Z,74.72
2022-11-05T02:01:40.401Z,74.62
2022-11-05T02:04:16.767Z,74.55
2022-11-05T02:06:48.157Z,74.63
2022-11-05T02:09:22.741Z,74.77
2022-11-05T02:11:51.844Z,74.98
2022-11-05T02:14:20.524Z,75.31
2022-11-05T02:16:48.695Z,75.25
2022-11-05T02:19:32.125Z,75.57
2022-11-05T02:22:35.526Z,75.74
2022-11-05T02:25:43.949Z,75.87
2022-11-05T02:28:27.379Z,76.22
2022-11-05T02:30:59.644Z,76.34
2022-11-05T02:33:56.989Z,76.41
2022-11-05T02:36:40.126Z,76.50
2022-11-05T02:39:17.284Z,76.27
2022-11-05T02:42:00.609Z,76.03
2022-11-05T02:44:41.515Z,76.24
2022-11-05T02:47:12.895Z,76.58
2022-11-05T02:50:16.985Z,76.97
2022-11-05T02:53:14.180Z,77.35
2022-11-05T02:55:47.395Z,77.49
2022-11-05T02:58:15.411Z,77.63
2022-11-05T03:00:53.100Z,77.70
2022-11-05T03:04:01.002Z,78.00
2022-11-05T03:06:47.508Z,78.42
2022-11-05T03:09:26.771Z,78.93
2022-11-05T03:11:54.809Z,78.62
2022-11-05T03:14:45.698Z,78.67
2022-11-05T03:17:37.968Z,78.58
2022-11-05T03:20:11.554Z,78.80
2022-11-05T03:22:56.015Z,78.53
2022-11-05T03:25:29.513Z,78.50
2022-11-05T03:28:03.677Z,78.38
2022-11-05T03:30:35.725Z,78.30
2022-11-05T03:33:11.155Z,77.80
2022-11-05T03:35:45.222Z,78.07
2022-11-05T03:38:21.622Z,78.00
2022-11-05T03:40:52.049Z,77.71
2022-11-05T03:43:23.807Z,77.80
2022-11-05T03:46:01.029Z,77.58
2022-11-05T03:48:31.704Z,77.32
2022-11-05T03:51:25.396Z,77.10
2022-11-05T03:53:58.537Z,76.95
2022-11-05T03:56:44.788Z,77.00
2022-11-05T03:59:13.845Z,77.34
2022-11-05T04:01:42.488Z,77.24
2022-11-05T04:04:10.739Z,76.88
2022-11-05T04:06:57.334Z,76.71
2022-11-05T04:09:44.158Z,76.55
2022-11-05T04:12:30.556Z,76.63
2022-11-05T04:14:58.535Z,76.61
2022-11-05T04:17:26.706Z,76.40
2022-11-05T04:20:13.006Z,76.16
2022-11-05T04:22:59.613Z,76.20
2022-11-05T04:25:27.883Z,76.14
2022-11-05T04:28:00.617Z,76.24
2022-11-05T04:30:28.840Z,76.12
2022-11-05T04:33:06.106Z,75.96
2022-11-05T04:35:39.874Z,75.66
2022-11-05T04:38:11.967Z,75.64
2022-11-05T04:40:39.976Z,75.92
2022-11-05T04:43:14.584Z,76.41
2022-11-05T04:45:43.565Z,76.54
2022-11-05T04:48:12.684Z,77.14
2022-11-05T04:50:40.867Z,77.54
2022-11-05T04:53:09.140Z,77.30
2022-11-05T04:55:37.414Z,77.45
2022-11-05T04:58:06.404Z,77.86
2022-11-05T05:00:34.439Z,78.15
2022-11-05T05:03:02.555Z,77.95
2022-11-05T05:05:30.835Z,78.09
2022-11-05T05:08:05.447Z,78.35
2022-11-05T05:10:33.406Z,78.56
2022-11-05T05:13:01.338Z,78.53
2022-11-05T05:15:29.254Z,78.15
2022-11-05T05:17:57.328Z,77.63
2022-11-05T05:20:43.730Z,77.83
2022-11-05T05:23:12.055Z,77.83
2022-11-05T05:25:40.276Z,77.74
2022-11-05T05:28:08.355Z,77.76
2022-11-05T05:30:36.965Z,77.66
2022-11-05T05:33:05.024Z,77.66
2022-11-05T05:35:33.019Z,77.71
2022-11-05T05:38:01.055Z,77.83
2022-11-05T05:40:29.024Z,77.52
2022-11-05T05:42:57.094Z,77.54
2022-11-05T05:45:24.945Z,77.68
2022-11-05T05:47:56.107Z,77.73
2022-11-05T05:50:24.177Z,77.66
2022-11-05T05:52:53.893Z,77.37
2022-11-05T05:55:22.066Z,76.89
2022-11-05T05:57:50.037Z,76.59
2022-11-05T06:00:18.205Z,76.25
2022-11-05T06:02:46.547Z,75.96
2022-11-05T06:05:14.870Z,75.56
2022-11-05T06:07:42.932Z,75.48
2022-11-05T06:10:11.006Z,75.28
2022-11-05T06:12:38.971Z,75.33
2022-11-05T06:15:07.456Z,75.58
2022-11-05T06:17:35.426Z,75.64
2022-11-05T06:20:03.834Z,75.56
2022-11-05T06:22:31.876Z,75.88
2022-11-05T06:24:59.947Z,76.16
2022-11-05T06:27:29.563Z,76.03
2022-11-05T06:29:57.633Z,76.04
2022-11-05T06:32:25.598Z,75.95
2022-11-05T06:34:53.776Z,76.30
2022-11-05T06:37:21.712Z,76.28
2022-11-05T06:39:49.723Z,75.74
2022-11-05T06:42:19.074Z,75.91
2022-11-05T06:44:47.593Z,75.95
2022-11-05T06:47:15.665Z,76.14
2022-11-05T06:49:43.663Z,76.35
2022-11-05T06:52:12.627Z,76.58
2022-11-05T06:54:42.474Z,76.51
2022-11-05T06:57:12.056Z,76.98
2022-11-05T06:59:40.334Z,77.29
2022-11-05T07:02:11.809Z,76.95
2022-11-05T07:04:40.163Z,76.90
2022-11-05T07:07:08.227Z,77.00
2022-11-05T07:09:40.617Z,76.74
2022-11-05T07:12:09.373Z,76.68
2022-11-05T07:14:37.466Z,76.79
2022-11-05T07:17:05.537Z,77.14
2022-11-05T07:19:33.462Z,77.20
2022-11-05T07:22:01.487Z,77.33
2022-11-05T07:24:29.651Z,77.39
2022-11-05T07:26:57.719Z,77.34
2022-11-05T07:29:25.796Z,77.41
2022-11-05T07:31:53.860Z,77.15
2022-11-05T07:34:21.939Z,76.71
2022-11-05T07:36:49.919Z,76.85
2022-11-05T07:39:17.861Z,76.88
2022-11-05T07:41:46.061Z,76.77
2022-11-05T07:44:14.739Z,76.85
2022-11-05T07:46:42.685Z,76.54
2022-11-05T07:49:10.571Z,76.20
2022-11-05T07:51:38.777Z,75.91
2022-11-05T07:54:06.699Z,75.36
2022-11-05T07:56:34.792Z,75.09
2022-11-05T07:59:03.676Z,75.02
2022-11-05T08:01:32.052Z,74.48
2022-11-05T08:04:00.862Z,74.00
2022-11-05T08:06:28.820Z,74.00
2022-11-05T08:08:56.743Z,73.58
2022-11-05T08:11:24.758Z,73.44
2022-11-05T08:13:52.722Z,73.23
2022-11-05T08:16:20.691Z,72.84
2022-11-05T08:18:48.732Z,72.72
2022-11-05T08:21:16.836Z,72.74
2022-11-05T08:23:45.519Z,72.55
2022-11-05T08:26:13.598Z,72.10
2022-11-05T08:28:41.768Z,72.07
2022-11-05T08:31:09.842Z,72.33
2022-11-05T08:33:38.120Z,73.05
2022-11-05T08:36:06.905Z,73.40
2022-11-05T08:38:34.982Z,73.47
2022-11-05T08:41:03.359Z,72.96
2022-11-05T08:43:31.433Z,72.91
2022-11-05T08:46:02.475Z,73.20
2022-11-05T08:48:30.541Z,73.27
2022-11-05T08:51:01.251Z,74.14
2022-11-05T08:53:29.258Z,73.77
2022-11-05T08:56:00.796Z,73.40
2022-11-05T08:58:28.971Z,73.27
2022-11-05T09:01:01.828Z,72.91
2022-11-05T09:03:32.905Z,71.97
2022-11-05T09:06:00.968Z,71.93
2022-11-05T09:08:29.197Z,71.72
2022-11-05T09:10:57.937Z,71.36
2022-11-05T09:13:27.295Z,71.71
2022-11-05T09:15:58.275Z,72.54
2022-11-05T09:18:26.759Z,73.06
2022-11-05T09:20:54.833Z,73.02
2022-11-05T09:23:23.006Z,72.54
2022-11-05T09:25:51.072Z,72.89
2022-11-05T09:28:20.676Z,72.66
2022-11-05T09:30:52.813Z,71.95
2022-11-05T09:33:24.152Z,71.68
2022-11-05T09:35:53.742Z,71.27
2022-11-05T09:38:22.096Z,71.08
2022-11-05T09:41:01.768Z,70.71
2022-11-05T09:43:41.062Z,69.49
2022-11-05T09:46:19.166Z,69.41
2022-11-05T09:48:52.520Z,68.18
2022-11-05T09:51:24.137Z,67.42
2022-11-05T09:53:53.771Z,67.01
2022-11-05T09:56:29.680Z,66.46
2022-11-05T09:59:11.859Z,66.55
2022-11-05T10:01:41.377Z,66.72
2022-11-05T10:04:17.143Z,65.87
2022-11-05T10:07:07.748Z,65.53
2022-11-05T10:10:07.945Z,65.32
2022-11-05T10:12:50.990Z,65.41
2022-11-05T10:15:25.114Z,64.93
2022-11-05T10:18:19.123Z,64.72
2022-11-05T10:20:47.703Z,64.73
2022-11-05T10:23:21.679Z,64.74
2022-11-05T10:25:58.767Z,64.84
2022-11-05T10:28:29.657Z,65.26
2022-11-05T10:31:00.947Z,65.89
2022-11-05T10:33:54.521Z,66.32
2022-11-05T10:36:35.292Z,66.67
2022-11-05T10:39:15.550Z,66.89
2022-11-05T10:42:01.947Z,66.63
2022-11-05T10:44:39.132Z,66.69
2022-11-05T10:47:33.838Z,66.55
2022-11-05T10:50:05.208Z,65.43
2022-11-05T10:52:40.135Z,65.56
2022-11-05T10:55:26.003Z,66.04
2022-11-05T10:57:54.480Z,65.80
2022-11-05T11:00:25.351Z,65.55
2022-11-05T11:02:54.411Z,64.74
2022-11-05T11:05:31.601Z,64.47
2022-11-05T11:08:11.653Z,64.78
2022-11-05T11:10:50.484Z,64.45
2022-11-05T11:13:48.042Z,64.08
2022-11-05T11:16:21.782Z,64.00
2022-11-05T11:19:00.877Z,64.17
2022-11-05T11:21:31.402Z,63.87
2022-11-05T11:24:06.999Z,63.81
2022-11-05T11:26:40.454Z,63.76
2022-11-05T11:29:26.236Z,63.43
2022-11-05T11:31:59.549Z,62.87
2022-11-05T11:34:31.187Z,62.98
2022-11-05T11:37:08.770Z,62.90
2022-11-05T11:39:39.514Z,62.21
2022-11-05T11:42:18.341Z,62.47
2022-11-05T11:44:48.050Z,62.50
2022-11-05T11:47:18.998Z,62.22
2022-11-05T11:49:49.723Z,62.19
2022-11-05T11:52:31.926Z,61.86
2022-11-05T11:55:20.007Z,61.59
2022-11-05T11:57:51.116Z,60.55
2022-11-05T12:00:21.273Z,60.55
2022-11-05T12:03:15.937Z,60.55
2022-11-05T12:05:47.477Z,60.25
2022-11-05T12:09:03.404Z,60.21
2022-11-05T12:11:55.616Z,59.98
2022-11-05T12:14:48.366Z,60.17
2022-11-05T12:17:19.509Z,59.39
2022-11-05T12:19:53.209Z,59.51
2022-11-05T12:22:39.573Z,58.82
2022-11-05T12:25:18.743Z,58.25
2022-11-05T12:27:55.898Z,57.48
2022-11-05T12:30:24.310Z,57.34
2022-11-05T12:33:04.747Z,56.93
2022-11-05T12:35:58.310Z,56.07
2022-11-05T12:38:26.420Z,55.28
2022-11-05T12:41:06.570Z,55.98
2022-11-05T12:44:02.388Z,55.97
2022-11-05T12:47:08.040Z,55.62
2022-11-05T12:49:43.696Z,55.89
2022-11-05T12:52:39.722Z,55.33
2022-11-05T12:55:24.187Z,55.48
2022-11-05T12:57:57.571Z,55.71
2022-11-05T13:00:28.154Z,55.98
2022-11-05T13:02:58.834Z,55.95
2022-11-05T13:05:29.874Z,55.88
2022-11-05T13:08:07.779Z,56.26
2022-11-05T13:10:46.811Z,56.24
2022-11-05T13:14:02.390Z,55.61
2022-11-05T13:16:36.607Z,55.83
2022-11-05T13:19:35.303Z,56.10
2022-11-05T13:22:21.498Z,56.29
2022-11-05T13:24:53.106Z,56.30
2022-11-05T13:27:55.327Z,57.10
2022-11-05T13:30:26.685Z,57.05
2022-11-05T13:33:04.264Z,57.17
2022-11-05T13:35:48.833Z,57.92
2022-11-05T13:38:44.234Z,57.99
2022-11-05T13:41:31.662Z,58.21
2022-11-05T13:44:24.746Z,58.20
2022-11-05T13:47:25.061Z,58.35
2022-11-05T13:49:55.881Z,59.05
2022-11-05T13:52:49.561Z,59.19
2022-11-05T13:55:52.649Z,59.39
2022-11-05T13:58:43.657Z,60.38
2022-11-05T14:01:30.189Z,60.86
2022-11-05T14:03:58.440Z,61.12
2022-11-05T14:06:33.834Z,61.85
2022-11-05T14:09:11.891Z,62.33
2022-11-05T14:11:50.090Z,62.74
2022-11-05T14:14:23.193Z,62.07
2022-11-05T14:17:09.701Z,61.67
2022-11-05T14:19:51.999Z,61.29
2022-11-05T14:22:41.155Z,61.80
2022-11-05T14:25:18.145Z,62.72
2022-11-05T14:27:51.950Z,63.32
2022-11-05T14:30:41.209Z,63.84
2022-11-05T14:33:24.454Z,64.35
2022-11-05T14:36:20.996Z,64.55
2022-11-05T14:38:51.563Z,64.26
2022-11-05T14:41:20.961Z,64.59
2022-11-05T14:44:10.288Z,65.23
2022-11-05T14:46:51.159Z,65.64
2022-11-05T14:49:24.869Z,65.56
2022-11-05T14:51:56.119Z,65.42
2022-11-05T14:54:24.493Z,65.58
2022-11-05T14:56:56.264Z,65.78
2022-11-05T14:59:24.845Z,65.95
2022-11-05T15:02:14.818Z,66.23
2022-11-05T15:04:45.794Z,66.48
2022-11-05T15:07:35.859Z,66.66
2022-11-05T15:10:12.043Z,67.48
2022-11-05T15:12:52.265Z,67.67
2022-11-05T15:15:30.683Z,67.45
2022-11-05T15:18:03.871Z,67.18
2022-11-05T15:20:40.375Z,67.05
2022-11-05T15:23:14.432Z,66.93
2022-11-05T15:25:59.934Z,66.91
2022-11-05T15:28:37.141Z,66.85
2022-11-05T15:31:14.105Z,67.00
2022-11-05T15:33:45.254Z,67.08
2022-11-05T15:36:32.058Z,67.17
2022-11-05T15:39:27.816Z,67.24
2022-11-05T15:41:48.066Z,67.49
2022-11-05T15:44:28.282Z,67.41
2022-11-05T15:47:17.698Z,67.55
2022-11-05T15:49:50.185Z,67.98
2022-11-05T15:52:20.909Z,68.39
2022-11-05T15:55:17.851Z,68.37
2022-11-05T15:58:07.058Z,68.44
2022-11-05T16:00:36.938Z,68.22
2022-11-05T16:03:06.862Z,67.71
2022-11-05T16:05:42.194Z,67.61
2022-11-05T16:08:20.797Z,67.55
2022-11-05T16:10:51.991Z,67.59
2022-11-05T16:13:29.240Z,68.09
2022-11-05T16:16:01.441Z,68.35
2022-11-05T16:18:35.805Z,68.51
2022-11-05T16:21:19.058Z,68.68
2022-11-05T16:23:49.814Z,68.93
2022-11-05T16:27:01.966Z,69.04
2022-11-05T16:29:32.525Z,69.31
2022-11-05T16:32:03.807Z,68.81
2022-11-05T16:34:41.484Z,68.49
2022-11-05T16:37:15.119Z,68.57
2022-11-05T16:39:43.145Z,68.51
2022-11-05T16:42:34.148Z,68.78
2022-11-05T16:45:02.119Z,68.95
2022-11-05T16:47:31.629Z,69.27
2022-11-05T16:49:59.603Z,69.28
2022-11-05T16:52:27.772Z,69.74
2022-11-05T16:54:55.800Z,69.84
2022-11-05T16:57:29.389Z,68.86
2022-11-05T16:59:59.366Z,69.17
2022-11-05T17:02:28.409Z,70.36
2022-11-05T17:04:56.471Z,70.68
2022-11-05T17:07:24.540Z,71.01
2022-11-05T17:09:52.575Z,71.43
2022-11-05T17:12:20.639Z,71.19
2022-11-05T17:14:48.712Z,71.09
2022-11-05T17:17:16.686Z,71.59
2022-11-05T17:19:45.677Z,71.69
2022-11-05T17:22:13.751Z,71.87
2022-11-05T17:24:41.824Z,72.45
2022-11-05T17:27:09.991Z,72.55
2022-11-05T17:29:37.945Z,73.03
2022-11-05T17:32:06.417Z,73.04
2022-11-05T17:34:34.439Z,73.30
2022-11-05T17:37:02.484Z,73.73
2022-11-05T17:39:31.864Z,73.80
2022-11-05T17:42:00.273Z,74.58
2022-11-05T17:44:28.287Z,74.50
2022-11-05T17:46:56.312Z,74.37
2022-11-05T17:49:24.489Z,74.12
2022-11-05T17:51:52.559Z,73.89
2022-11-05T17:54:20.630Z,73.77
2022-11-05T17:56:48.566Z,73.53
2022-11-05T17:59:16.870Z,73.35
2022-11-05T18:01:46.224Z,73.07
2022-11-05T18:04:14.656Z,72.99
2022-11-05T18:06:43.062Z,72.94
2022-11-05T18:09:12.135Z,72.70
2022-11-05T18:11:41.330Z,72.72
2022-11-05T18:14:09.623Z,72.62
2022-11-05T18:16:37.741Z,72.93
2022-11-05T18:19:06.054Z,73.40
2022-11-05T18:21:34.022Z,73.80
2022-11-05T18:24:03.843Z,74.03
2022-11-05T18:26:32.521Z,73.86
2022-11-05T18:29:05.800Z,74.00
2022-11-05T18:31:33.808Z,73.82
2022-11-05T18:34:02.132Z,73.66
2022-11-05T18:36:32.394Z,73.78
2022-11-05T18:39:02.494Z,73.30
2022-11-05T18:41:30.577Z,72.82
2022-11-05T18:44:03.681Z,72.67
2022-11-05T18:46:57.153Z,72.36
2022-11-05T18:49:21.723Z,72.27
2022-11-05T18:51:49.908Z,72.10
2022-11-05T18:54:17.974Z,72.02
2022-11-05T18:56:46.646Z,72.24
2022-11-05T19:02:09.034Z,72.52
2022-11-05T19:04:37.503Z,72.85
2022-11-05T19:07:06.899Z,72.91
2022-11-05T19:09:37.006Z,73.18
2022-11-05T19:12:06.439Z,73.22
2022-11-05T19:14:35.835Z,73.29
2022-11-05T19:17:04.460Z,73.27
2022-11-05T19:19:32.481Z,73.13
2022-11-05T19:22:00.765Z,72.95
2022-11-05T19:24:29.119Z,72.82
2022-11-05T19:26:57.331Z,72.78
2022-11-05T19:29:25.492Z,73.12
2022-11-05T19:31:53.665Z,73.02
2022-11-05T19:34:21.633Z,73.01
2022-11-05T19:36:49.640Z,72.73
2022-11-05T19:39:17.625Z,72.62
2022-11-05T19:41:45.768Z,72.53
2022-11-05T19:44:13.713Z,72.61
2022-11-05T19:46:41.784Z,72.94
2022-11-05T19:49:10.679Z,73.01
2022-11-05T19:51:39.602Z,73.11
2022-11-05T19:54:09.181Z,73.23
2022-11-05T19:56:38.467Z,73.15
2022-11-05T19:59:09.513Z,72.70
2022-11-05T20:01:37.843Z,72.97
2022-11-05T20:04:06.349Z,73.21
2022-11-05T20:06:38.784Z,72.81
2022-11-05T20:09:26.058Z,73.72
2022-11-05T20:11:56.725Z,74.18
2022-11-05T20:14:26.416Z,73.99
2022-11-05T20:16:54.484Z,74.61
2022-11-05T20:19:23.483Z,74.33
2022-11-05T20:21:51.873Z,74.45
2022-11-05T20:24:25.140Z,74.63
2022-11-05T20:26:55.409Z,75.13
2022-11-05T20:29:30.498Z,75.43
2022-11-05T20:32:04.219Z,75.73
2022-11-05T20:34:34.132Z,75.48
2022-11-05T20:37:02.100Z,75.46
2022-11-05T20:39:30.179Z,75.63
2022-11-05T20:42:00.700Z,75.53
2022-11-05T20:44:29.085Z,76.11
2022-11-05T20:46:57.365Z,76.01
2022-11-05T20:49:25.952Z,76.63
2022-11-05T20:51:54.528Z,77.14
2022-11-05T20:54:24.323Z,76.74
2022-11-05T20:56:52.316Z,77.03
2022-11-05T20:59:20.284Z,76.66
2022-11-05T21:01:50.222Z,76.58
2022-11-05T21:04:18.202Z,76.60
2022-11-05T21:06:46.140Z,76.33
2022-11-05T21:09:14.205Z,76.12
2022-11-05T21:12:00.611Z,76.15
2022-11-05T21:14:28.581Z,76.10
2022-11-05T21:16:56.555Z,75.93
2022-11-05T21:19:24.529Z,75.67
2022-11-05T21:21:52.584Z,75.56
2022-11-05T21:24:20.875Z,75.78
2022-11-05T21:26:50.100Z,75.66
2022-11-05T21:29:18.846Z,75.75
2022-11-05T21:31:47.225Z,75.77
2022-11-05T21:34:16.014Z,75.86
2022-11-05T21:36:44.104Z,75.64
2022-11-05T21:39:13.725Z,75.50
2022-11-05T21:41:42.898Z,75.33
2022-11-05T21:44:11.176Z,75.43
2022-11-05T21:46:39.654Z,75.50
2022-11-05T21:49:07.852Z,75.60
2022-11-05T21:52:14.404Z,75.64
2022-11-05T21:55:01.004Z,76.01
2022-11-05T21:57:47.729Z,76.42
2022-11-05T22:00:15.786Z,76.59
2022-11-05T22:02:43.814Z,76.56
2022-11-05T22:05:12.138Z,76.68
2022-11-05T22:07:40.519Z,76.95
2022-11-05T22:10:15.841Z,76.16
2022-11-05T22:12:45.877Z,75.94
2022-11-05T22:15:14.053Z,76.13
2022-11-05T22:17:46.668Z,76.94
2022-11-05T22:20:16.442Z,77.52
2022-11-05T22:22:45.030Z,77.43
2022-11-05T22:25:14.463Z,77.99
2022-11-05T22:27:44.109Z,77.66
2022-11-05T22:30:13.593Z,77.88
2022-11-05T22:32:41.928Z,77.59
2022-11-05T22:35:10.404Z,77.82
2022-11-05T22:37:38.776Z,78.42
2022-11-05T22:40:07.266Z,78.16
2022-11-05T22:42:35.371Z,78.11
2022-11-05T22:45:03.927Z,77.92
2022-11-05T22:47:31.928Z,77.82
2022-11-05T22:50:00.172Z,77.83
2022-11-05T22:52:28.232Z,78.18
2022-11-05T22:54:56.310Z,78.39
2022-11-05T22:57:24.378Z,78.31
2022-11-05T22:59:52.452Z,77.98
2022-11-05T23:02:20.676Z,78.34
2022-11-05T23:04:53.614Z,78.58
2022-11-05T23:07:40.220Z,78.23
2022-11-05T23:10:28.052Z,78.08
2022-11-05T23:12:56.228Z,77.78
2022-11-05T23:15:43.241Z,77.29
2022-11-05T23:18:30.156Z,76.69
2022-11-05T23:21:20.542Z,76.61
2022-11-05T23:24:05.943Z,76.29
2022-11-05T23:26:51.220Z,76.05
2022-11-05T23:29:22.145Z,76.13
2022-11-05T23:32:09.718Z,75.89
2022-11-05T23:34:38.362Z,75.68
2022-11-05T23:37:25.378Z,76.38
2022-11-05T23:39:54.263Z,76.82
2022-11-05T23:42:41.395Z,76.23
2022-11-05T23:45:28.703Z,76.95
2022-11-05T23:48:15.361Z,77.13
2022-11-05T23:50:49.628Z,77.32
2022-11-05T23:53:18.929Z,77.62
2022-11-05T23:55:47.295Z,77.99
2022-11-05T23:58:16.926Z,77.91
